sensor_id;sensor_type;location;lat;lon;timestamp;temperature;humidity
54429;DHT22;40337;52.978;6.310;2023-04-24T00:01:16;11.40;99.90
54429;DHT22;40337;52.978;6.310;2023-04-24T00:03:42;11.40;99.90
54429;DHT22;40337;52.978;6.310;2023-04-24T00:06:08;11.30;99.90
54429;DHT22;40337;52.978;6.310;2023-04-24T00:08:36;11.30;99.90
54429;DHT22;40337;52.978;6.310;2023-04-24T00:11:02;11.30;99.90
54429;DHT22;40337;52.978;6.310;2023-04-24T00:13:28;11.30;99.90
54429;DHT22;40337;52.978;6.310;2023-04-24T00:15:55;11.30;99.90
54429;DHT22;40337;52.978;6.310;2023-04-24T00:18:20;11.30;99.90
54429;DHT22;40337;52.978;6.310;2023-04-24T00:20:46;11.30;99.90
54429;DHT22;40337;52.978;6.310;2023-04-24T00:23:12;11.30;99.90
54429;DHT22;40337;52.978;6.310;2023-04-24T00:25:38;11.30;99.90
54429;DHT22;40337;52.978;6.310;2023-04-24T00:28:03;11.30;99.90
54429;DHT22;40337;52.978;6.310;2023-04-24T00:30:29;11.20;99.90
54429;DHT22;40337;52.978;6.310;2023-04-24T00:32:55;11.20;99.90
54429;DHT22;40337;52.978;6.310;2023-04-24T00:35:21;11.20;99.90
54429;DHT22;40337;52.978;6.310;2023-04-24T00:37:46;11.10;99.90
54429;DHT22;40337;52.978;6.310;2023-04-24T00:40:12;11.10;99.90
54429;DHT22;40337;52.978;6.310;2023-04-24T00:42:39;11.00;99.90
54429;DHT22;40337;52.978;6.310;2023-04-24T00:45:05;11.00;99.90
54429;DHT22;40337;52.978;6.310;2023-04-24T00:47:33;11.00;99.90
54429;DHT22;40337;52.978;6.310;2023-04-24T00:49:59;11.00;99.90
54429;DHT22;40337;52.978;6.310;2023-04-24T00:52:25;11.00;99.90
54429;DHT22;40337;52.978;6.310;2023-04-24T00:54:51;11.00;99.90
54429;DHT22;40337;52.978;6.310;2023-04-24T00:57:17;10.90;99.90
54429;DHT22;40337;52.978;6.310;2023-04-24T00:59:43;10.90;99.90
54429;DHT22;40337;52.978;6.310;2023-04-24T01:02:10;10.90;99.90
54429;DHT22;40337;52.978;6.310;2023-04-24T01:04:36;10.90;99.90
54429;DHT22;40337;52.978;6.310;2023-04-24T01:07:02;10.90;99.90
54429;DHT22;40337;52.978;6.310;2023-04-24T01:09:28;10.80;99.90
54429;DHT22;40337;52.978;6.310;2023-04-24T01:11:54;10.80;99.90
54429;DHT22;40337;52.978;6.310;2023-04-24T01:14:20;10.80;99.90
54429;DHT22;40337;52.978;6.310;2023-04-24T01:16:46;10.80;99.90
54429;DHT22;40337;52.978;6.310;2023-04-24T01:19:13;10.70;99.90
54429;DHT22;40337;52.978;6.310;2023-04-24T01:21:41;10.80;99.90
54429;DHT22;40337;52.978;6.310;2023-04-24T01:24:08;10.70;99.90
54429;DHT22;40337;52.978;6.310;2023-04-24T01:26:34;10.70;99.90
54429;DHT22;40337;52.978;6.310;2023-04-24T01:29:00;10.70;99.90
54429;DHT22;40337;52.978;6.310;2023-04-24T01:31:25;10.60;99.90
54429;DHT22;40337;52.978;6.310;2023-04-24T01:33:51;10.60;99.90
54429;DHT22;40337;52.978;6.310;2023-04-24T01:36:18;10.60;99.90
54429;DHT22;40337;52.978;6.310;2023-04-24T01:38:44;10.60;99.90
54429;DHT22;40337;52.978;6.310;2023-04-24T01:41:10;10.60;99.90
54429;DHT22;40337;52.978;6.310;2023-04-24T01:43:36;10.60;99.90
54429;DHT22;40337;52.978;6.310;2023-04-24T01:46:01;10.60;99.90
54429;DHT22;40337;52.978;6.310;2023-04-24T01:48:27;10.60;99.90
54429;DHT22;40337;52.978;6.310;2023-04-24T01:50:53;10.60;99.90
54429;DHT22;40337;52.978;6.310;2023-04-24T01:53:19;10.50;99.90
54429;DHT22;40337;52.978;6.310;2023-04-24T01:55:44;10.50;99.90
54429;DHT22;40337;52.978;6.310;2023-04-24T01:58:10;10.60;99.90
54429;DHT22;40337;52.978;6.310;2023-04-24T02:00:36;10.50;99.90
54429;DHT22;40337;52.978;6.310;2023-04-24T02:03:01;10.50;99.90
54429;DHT22;40337;52.978;6.310;2023-04-24T02:05:28;10.50;99.90
54429;DHT22;40337;52.978;6.310;2023-04-24T02:07:53;10.50;99.90
54429;DHT22;40337;52.978;6.310;2023-04-24T02:10:19;10.50;99.90
54429;DHT22;40337;52.978;6.310;2023-04-24T02:12:44;10.50;99.90
54429;DHT22;40337;52.978;6.310;2023-04-24T02:15:10;10.40;99.90
54429;DHT22;40337;52.978;6.310;2023-04-24T02:17:36;10.40;99.90
54429;DHT22;40337;52.978;6.310;2023-04-24T02:20:01;10.40;99.90
54429;DHT22;40337;52.978;6.310;2023-04-24T02:22:27;10.50;99.90
54429;DHT22;40337;52.978;6.310;2023-04-24T02:24:53;10.50;99.90
54429;DHT22;40337;52.978;6.310;2023-04-24T02:27:18;10.50;99.90
54429;DHT22;40337;52.978;6.310;2023-04-24T02:29:44;10.50;99.90
54429;DHT22;40337;52.978;6.310;2023-04-24T02:32:10;10.50;99.90
54429;DHT22;40337;52.978;6.310;2023-04-24T02:34:37;10.50;99.90
54429;DHT22;40337;52.978;6.310;2023-04-24T02:37:03;10.50;99.90
54429;DHT22;40337;52.978;6.310;2023-04-24T02:39:29;10.40;99.90
54429;DHT22;40337;52.978;6.310;2023-04-24T02:41:54;10.40;99.90
54429;DHT22;40337;52.978;6.310;2023-04-24T02:44:20;10.40;99.90
54429;DHT22;40337;52.978;6.310;2023-04-24T02:46:47;10.40;99.90
54429;DHT22;40337;52.978;6.310;2023-04-24T02:49:12;10.40;99.90
54429;DHT22;40337;52.978;6.310;2023-04-24T02:51:38;10.30;99.90
54429;DHT22;40337;52.978;6.310;2023-04-24T02:54:09;10.30;99.90
54429;DHT22;40337;52.978;6.310;2023-04-24T02:56:37;10.30;99.90
54429;DHT22;40337;52.978;6.310;2023-04-24T02:59:03;10.30;99.90
54429;DHT22;40337;52.978;6.310;2023-04-24T03:01:29;10.30;99.90
54429;DHT22;40337;52.978;6.310;2023-04-24T03:03:54;10.30;99.90
54429;DHT22;40337;52.978;6.310;2023-04-24T03:06:20;10.30;99.90
54429;DHT22;40337;52.978;6.310;2023-04-24T03:08:47;10.20;99.90
54429;DHT22;40337;52.978;6.310;2023-04-24T03:11:12;10.20;99.90
54429;DHT22;40337;52.978;6.310;2023-04-24T03:13:38;10.20;99.90
54429;DHT22;40337;52.978;6.310;2023-04-24T03:16:04;10.20;99.90
54429;DHT22;40337;52.978;6.310;2023-04-24T03:18:30;10.20;99.90
54429;DHT22;40337;52.978;6.310;2023-04-24T03:20:56;10.20;99.90
54429;DHT22;40337;52.978;6.310;2023-04-24T03:23:21;10.20;99.90
54429;DHT22;40337;52.978;6.310;2023-04-24T03:25:47;10.20;99.90
54429;DHT22;40337;52.978;6.310;2023-04-24T03:28:13;10.20;99.90
54429;DHT22;40337;52.978;6.310;2023-04-24T03:30:39;10.20;99.90
54429;DHT22;40337;52.978;6.310;2023-04-24T03:33:05;10.20;99.90
54429;DHT22;40337;52.978;6.310;2023-04-24T03:35:30;10.20;99.90
54429;DHT22;40337;52.978;6.310;2023-04-24T03:37:56;10.20;99.90
54429;DHT22;40337;52.978;6.310;2023-04-24T03:40:22;10.20;99.90
54429;DHT22;40337;52.978;6.310;2023-04-24T03:42:47;10.20;99.90
54429;DHT22;40337;52.978;6.310;2023-04-24T03:45:13;10.20;99.90
54429;DHT22;40337;52.978;6.310;2023-04-24T03:47:38;10.20;99.90
54429;DHT22;40337;52.978;6.310;2023-04-24T03:50:04;10.20;99.90
54429;DHT22;40337;52.978;6.310;2023-04-24T03:52:30;10.20;99.90
54429;DHT22;40337;52.978;6.310;2023-04-24T03:54:56;10.20;99.90
54429;DHT22;40337;52.978;6.310;2023-04-24T03:57:22;10.20;99.90
54429;DHT22;40337;52.978;6.310;2023-04-24T03:59:47;10.20;99.90
54429;DHT22;40337;52.978;6.310;2023-04-24T04:02:13;10.20;99.90
54429;DHT22;40337;52.978;6.310;2023-04-24T04:04:38;10.20;99.90
54429;DHT22;40337;52.978;6.310;2023-04-24T04:07:04;10.20;99.90
54429;DHT22;40337;52.978;6.310;2023-04-24T04:09:30;10.20;99.90
54429;DHT22;40337;52.978;6.310;2023-04-24T04:11:56;10.20;99.90
54429;DHT22;40337;52.978;6.310;2023-04-24T04:14:22;10.10;99.90
54429;DHT22;40337;52.978;6.310;2023-04-24T04:16:48;10.20;99.90
54429;DHT22;40337;52.978;6.310;2023-04-24T04:19:14;10.20;99.90
54429;DHT22;40337;52.978;6.310;2023-04-24T04:21:39;10.20;99.90
54429;DHT22;40337;52.978;6.310;2023-04-24T04:24:05;10.10;99.90
54429;DHT22;40337;52.978;6.310;2023-04-24T04:26:32;10.10;99.90
54429;DHT22;40337;52.978;6.310;2023-04-24T04:28:59;10.10;99.90
54429;DHT22;40337;52.978;6.310;2023-04-24T04:31:26;10.10;99.90
54429;DHT22;40337;52.978;6.310;2023-04-24T04:33:51;10.10;99.90
54429;DHT22;40337;52.978;6.310;2023-04-24T04:36:17;10.10;99.90
54429;DHT22;40337;52.978;6.310;2023-04-24T04:38:42;10.20;99.90
54429;DHT22;40337;52.978;6.310;2023-04-24T04:41:10;10.20;99.90
54429;DHT22;40337;52.978;6.310;2023-04-24T04:43:36;10.20;99.90
54429;DHT22;40337;52.978;6.310;2023-04-24T04:46:01;10.30;99.90
54429;DHT22;40337;52.978;6.310;2023-04-24T04:48:28;10.30;99.90
54429;DHT22;40337;52.978;6.310;2023-04-24T04:50:57;10.30;99.90
54429;DHT22;40337;52.978;6.310;2023-04-24T04:53:22;10.40;99.90
54429;DHT22;40337;52.978;6.310;2023-04-24T04:55:48;10.40;99.90
54429;DHT22;40337;52.978;6.310;2023-04-24T04:58:13;10.50;99.90
54429;DHT22;40337;52.978;6.310;2023-04-24T05:00:39;10.50;99.90
54429;DHT22;40337;52.978;6.310;2023-04-24T05:03:04;10.50;99.90
54429;DHT22;40337;52.978;6.310;2023-04-24T05:05:30;10.50;99.90
54429;DHT22;40337;52.978;6.310;2023-04-24T05:07:56;10.50;99.90
54429;DHT22;40337;52.978;6.310;2023-04-24T05:10:21;10.60;99.90
54429;DHT22;40337;52.978;6.310;2023-04-24T05:12:47;10.50;99.90
54429;DHT22;40337;52.978;6.310;2023-04-24T05:15:12;10.50;99.90
54429;DHT22;40337;52.978;6.310;2023-04-24T05:17:38;10.50;99.90
54429;DHT22;40337;52.978;6.310;2023-04-24T05:20:05;10.50;99.90
54429;DHT22;40337;52.978;6.310;2023-04-24T05:22:31;10.40;99.90
54429;DHT22;40337;52.978;6.310;2023-04-24T05:24:57;10.50;99.90
54429;DHT22;40337;52.978;6.310;2023-04-24T05:27:23;10.50;99.90
54429;DHT22;40337;52.978;6.310;2023-04-24T05:29:49;10.50;99.90
54429;DHT22;40337;52.978;6.310;2023-04-24T05:32:15;10.50;99.90
54429;DHT22;40337;52.978;6.310;2023-04-24T05:34:40;10.40;99.90
54429;DHT22;40337;52.978;6.310;2023-04-24T05:37:06;10.50;99.90
54429;DHT22;40337;52.978;6.310;2023-04-24T05:39:34;10.40;99.90
54429;DHT22;40337;52.978;6.310;2023-04-24T05:42:00;10.50;99.90
54429;DHT22;40337;52.978;6.310;2023-04-24T05:44:26;10.50;99.90
54429;DHT22;40337;52.978;6.310;2023-04-24T05:46:52;10.50;99.90
54429;DHT22;40337;52.978;6.310;2023-04-24T05:49:17;10.40;99.90
54429;DHT22;40337;52.978;6.310;2023-04-24T05:51:43;10.40;99.90
54429;DHT22;40337;52.978;6.310;2023-04-24T05:54:08;10.40;99.90
54429;DHT22;40337;52.978;6.310;2023-04-24T05:56:35;10.40;99.90
54429;DHT22;40337;52.978;6.310;2023-04-24T05:59:01;10.40;99.90
54429;DHT22;40337;52.978;6.310;2023-04-24T06:01:27;10.40;99.90
54429;DHT22;40337;52.978;6.310;2023-04-24T06:03:52;10.30;99.90
54429;DHT22;40337;52.978;6.310;2023-04-24T06:06:18;10.40;99.90
54429;DHT22;40337;52.978;6.310;2023-04-24T06:08:44;10.30;99.90
54429;DHT22;40337;52.978;6.310;2023-04-24T06:11:10;10.30;99.90
54429;DHT22;40337;52.978;6.310;2023-04-24T06:13:36;10.40;99.90
54429;DHT22;40337;52.978;6.310;2023-04-24T06:16:01;10.40;99.90
54429;DHT22;40337;52.978;6.310;2023-04-24T06:18:27;10.40;99.90
54429;DHT22;40337;52.978;6.310;2023-04-24T06:20:52;10.40;99.90
54429;DHT22;40337;52.978;6.310;2023-04-24T06:23:18;10.40;99.90
54429;DHT22;40337;52.978;6.310;2023-04-24T06:25:44;10.30;99.90
54429;DHT22;40337;52.978;6.310;2023-04-24T06:28:09;10.40;99.90
54429;DHT22;40337;52.978;6.310;2023-04-24T06:30:35;10.40;99.90
54429;DHT22;40337;52.978;6.310;2023-04-24T06:33:00;10.40;99.90
54429;DHT22;40337;52.978;6.310;2023-04-24T06:35:26;10.40;99.90
54429;DHT22;40337;52.978;6.310;2023-04-24T06:37:51;10.40;99.90
54429;DHT22;40337;52.978;6.310;2023-04-24T06:40:17;10.40;99.90
54429;DHT22;40337;52.978;6.310;2023-04-24T06:42:44;10.40;99.90
54429;DHT22;40337;52.978;6.310;2023-04-24T06:45:09;10.40;99.90
54429;DHT22;40337;52.978;6.310;2023-04-24T06:47:35;10.40;99.90
54429;DHT22;40337;52.978;6.310;2023-04-24T06:50:01;10.40;99.90
54429;DHT22;40337;52.978;6.310;2023-04-24T06:52:27;10.40;99.90
54429;DHT22;40337;52.978;6.310;2023-04-24T06:54:52;10.40;99.90
54429;DHT22;40337;52.978;6.310;2023-04-24T06:57:18;10.40;99.90
54429;DHT22;40337;52.978;6.310;2023-04-24T06:59:45;10.40;99.90
54429;DHT22;40337;52.978;6.310;2023-04-24T07:02:10;10.40;99.90
54429;DHT22;40337;52.978;6.310;2023-04-24T07:04:36;10.40;99.90
54429;DHT22;40337;52.978;6.310;2023-04-24T07:07:02;10.30;99.90
54429;DHT22;40337;52.978;6.310;2023-04-24T07:09:27;10.40;99.90
54429;DHT22;40337;52.978;6.310;2023-04-24T07:11:53;10.30;99.90
54429;DHT22;40337;52.978;6.310;2023-04-24T07:14:20;10.40;99.90
54429;DHT22;40337;52.978;6.310;2023-04-24T07:16:46;10.40;99.90
54429;DHT22;40337;52.978;6.310;2023-04-24T07:19:12;10.40;99.90
54429;DHT22;40337;52.978;6.310;2023-04-24T07:21:38;10.30;99.90
54429;DHT22;40337;52.978;6.310;2023-04-24T07:24:04;10.40;99.90
54429;DHT22;40337;52.978;6.310;2023-04-24T07:26:30;10.20;99.90
54429;DHT22;40337;52.978;6.310;2023-04-24T07:28:55;10.30;99.90
54429;DHT22;40337;52.978;6.310;2023-04-24T07:31:21;10.30;99.90
54429;DHT22;40337;52.978;6.310;2023-04-24T07:33:47;10.30;99.90
54429;DHT22;40337;52.978;6.310;2023-04-24T07:36:13;10.30;99.90
54429;DHT22;40337;52.978;6.310;2023-04-24T07:38:42;10.30;99.90
54429;DHT22;40337;52.978;6.310;2023-04-24T07:41:08;10.30;99.90
54429;DHT22;40337;52.978;6.310;2023-04-24T07:43:34;10.30;99.90
54429;DHT22;40337;52.978;6.310;2023-04-24T07:45:59;10.30;99.90
54429;DHT22;40337;52.978;6.310;2023-04-24T07:48:25;10.30;99.90
54429;DHT22;40337;52.978;6.310;2023-04-24T07:50:52;10.20;99.90
54429;DHT22;40337;52.978;6.310;2023-04-24T07:53:17;10.20;99.90
54429;DHT22;40337;52.978;6.310;2023-04-24T07:55:43;10.20;99.90
54429;DHT22;40337;52.978;6.310;2023-04-24T07:58:08;10.20;99.90
54429;DHT22;40337;52.978;6.310;2023-04-24T08:00:34;10.10;99.90
54429;DHT22;40337;52.978;6.310;2023-04-24T08:03:00;10.10;99.90
54429;DHT22;40337;52.978;6.310;2023-04-24T08:05:26;10.00;99.90
54429;DHT22;40337;52.978;6.310;2023-04-24T08:07:52;10.00;99.90
54429;DHT22;40337;52.978;6.310;2023-04-24T08:10:18;10.10;99.90
54429;DHT22;40337;52.978;6.310;2023-04-24T08:12:44;10.00;99.90
54429;DHT22;40337;52.978;6.310;2023-04-24T08:15:10;10.00;99.90
54429;DHT22;40337;52.978;6.310;2023-04-24T08:17:35;10.00;99.90
54429;DHT22;40337;52.978;6.310;2023-04-24T08:20:03;9.90;99.90
54429;DHT22;40337;52.978;6.310;2023-04-24T08:22:30;9.90;99.90
54429;DHT22;40337;52.978;6.310;2023-04-24T08:24:56;9.90;99.90
54429;DHT22;40337;52.978;6.310;2023-04-24T08:27:26;9.80;99.90
54429;DHT22;40337;52.978;6.310;2023-04-24T08:29:53;9.80;99.90
54429;DHT22;40337;52.978;6.310;2023-04-24T08:32:18;9.80;99.90
54429;DHT22;40337;52.978;6.310;2023-04-24T08:34:44;9.70;99.90
54429;DHT22;40337;52.978;6.310;2023-04-24T08:37:10;9.70;99.90
54429;DHT22;40337;52.978;6.310;2023-04-24T08:39:36;9.70;99.90
54429;DHT22;40337;52.978;6.310;2023-04-24T08:42:02;9.70;99.90
54429;DHT22;40337;52.978;6.310;2023-04-24T08:44:35;9.70;99.90
54429;DHT22;40337;52.978;6.310;2023-04-24T08:47:04;9.70;99.90
54429;DHT22;40337;52.978;6.310;2023-04-24T08:49:31;9.70;99.90
54429;DHT22;40337;52.978;6.310;2023-04-24T08:51:56;9.70;99.90
54429;DHT22;40337;52.978;6.310;2023-04-24T08:54:23;9.70;99.90
54429;DHT22;40337;52.978;6.310;2023-04-24T08:56:50;9.70;99.90
54429;DHT22;40337;52.978;6.310;2023-04-24T08:59:18;9.80;99.90
54429;DHT22;40337;52.978;6.310;2023-04-24T09:01:45;9.80;99.90
54429;DHT22;40337;52.978;6.310;2023-04-24T09:04:12;9.90;99.90
54429;DHT22;40337;52.978;6.310;2023-04-24T09:06:40;9.90;99.90
54429;DHT22;40337;52.978;6.310;2023-04-24T09:09:06;9.90;99.90
54429;DHT22;40337;52.978;6.310;2023-04-24T09:11:32;9.90;99.90
54429;DHT22;40337;52.978;6.310;2023-04-24T09:13:58;10.00;99.90
54429;DHT22;40337;52.978;6.310;2023-04-24T09:16:25;10.00;99.90
54429;DHT22;40337;52.978;6.310;2023-04-24T09:18:52;10.00;99.90
54429;DHT22;40337;52.978;6.310;2023-04-24T09:21:21;10.00;99.90
54429;DHT22;40337;52.978;6.310;2023-04-24T09:23:46;9.90;99.90
54429;DHT22;40337;52.978;6.310;2023-04-24T09:26:12;9.90;99.90
54429;DHT22;40337;52.978;6.310;2023-04-24T09:28:40;9.90;99.90
54429;DHT22;40337;52.978;6.310;2023-04-24T09:31:13;9.90;99.90
54429;DHT22;40337;52.978;6.310;2023-04-24T09:33:40;9.90;99.90
54429;DHT22;40337;52.978;6.310;2023-04-24T09:36:06;9.80;99.90
54429;DHT22;40337;52.978;6.310;2023-04-24T09:38:38;9.80;99.90
54429;DHT22;40337;52.978;6.310;2023-04-24T09:41:08;9.90;99.90
54429;DHT22;40337;52.978;6.310;2023-04-24T09:43:38;10.00;99.90
54429;DHT22;40337;52.978;6.310;2023-04-24T09:46:07;10.00;99.90
54429;DHT22;40337;52.978;6.310;2023-04-24T09:48:36;10.10;99.90
54429;DHT22;40337;52.978;6.310;2023-04-24T09:51:04;10.20;99.90
54429;DHT22;40337;52.978;6.310;2023-04-24T09:53:32;10.30;99.90
54429;DHT22;40337;52.978;6.310;2023-04-24T09:56:16;10.40;99.90
54429;DHT22;40337;52.978;6.310;2023-04-24T09:58:41;10.50;99.90
54429;DHT22;40337;52.978;6.310;2023-04-24T10:01:07;10.60;99.90
54429;DHT22;40337;52.978;6.310;2023-04-24T10:03:33;10.70;99.90
54429;DHT22;40337;52.978;6.310;2023-04-24T10:06:00;10.70;99.90
54429;DHT22;40337;52.978;6.310;2023-04-24T10:08:26;10.60;99.90
54429;DHT22;40337;52.978;6.310;2023-04-24T10:10:58;10.50;99.90
54429;DHT22;40337;52.978;6.310;2023-04-24T10:13:24;10.40;99.90
54429;DHT22;40337;52.978;6.310;2023-04-24T10:15:50;10.40;99.90
54429;DHT22;40337;52.978;6.310;2023-04-24T10:18:16;10.30;99.90
54429;DHT22;40337;52.978;6.310;2023-04-24T10:20:42;10.20;99.90
54429;DHT22;40337;52.978;6.310;2023-04-24T10:23:07;10.20;99.90
54429;DHT22;40337;52.978;6.310;2023-04-24T10:25:35;10.10;99.90
54429;DHT22;40337;52.978;6.310;2023-04-24T10:28:01;10.20;99.90
54429;DHT22;40337;52.978;6.310;2023-04-24T10:30:33;10.10;99.90
54429;DHT22;40337;52.978;6.310;2023-04-24T10:33:06;10.10;99.90
54429;DHT22;40337;52.978;6.310;2023-04-24T10:35:36;10.20;99.90
54429;DHT22;40337;52.978;6.310;2023-04-24T10:38:06;10.20;99.90
54429;DHT22;40337;52.978;6.310;2023-04-24T10:40:34;10.30;99.90
54429;DHT22;40337;52.978;6.310;2023-04-24T10:43:07;10.30;99.90
54429;DHT22;40337;52.978;6.310;2023-04-24T10:45:37;10.40;99.90
54429;DHT22;40337;52.978;6.310;2023-04-24T10:48:09;10.50;99.90
54429;DHT22;40337;52.978;6.310;2023-04-24T10:50:47;10.60;99.90
54429;DHT22;40337;52.978;6.310;2023-04-24T10:53:17;10.70;99.90
54429;DHT22;40337;52.978;6.310;2023-04-24T10:55:46;10.60;99.90
54429;DHT22;40337;52.978;6.310;2023-04-24T10:58:12;10.50;99.90
54429;DHT22;40337;52.978;6.310;2023-04-24T11:00:39;10.40;99.90
54429;DHT22;40337;52.978;6.310;2023-04-24T11:03:23;10.30;99.90
54429;DHT22;40337;52.978;6.310;2023-04-24T11:06:01;10.30;99.90
54429;DHT22;40337;52.978;6.310;2023-04-24T11:08:43;10.30;99.90
54429;DHT22;40337;52.978;6.310;2023-04-24T11:11:14;10.30;99.90
54429;DHT22;40337;52.978;6.310;2023-04-24T11:16:43;10.40;99.90
54429;DHT22;40337;52.978;6.310;2023-04-24T11:19:22;10.50;99.90
54429;DHT22;40337;52.978;6.310;2023-04-24T11:22:06;10.50;99.90
54429;DHT22;40337;52.978;6.310;2023-04-24T11:24:48;10.50;99.90
54429;DHT22;40337;52.978;6.310;2023-04-24T11:27:16;10.60;99.90
54429;DHT22;40337;52.978;6.310;2023-04-24T11:32:50;10.60;99.90
54429;DHT22;40337;52.978;6.310;2023-04-24T11:35:16;10.40;99.90
54429;DHT22;40337;52.978;6.310;2023-04-24T11:37:44;10.30;99.90
54429;DHT22;40337;52.978;6.310;2023-04-24T11:40:15;10.20;99.90
54429;DHT22;40337;52.978;6.310;2023-04-24T11:42:43;10.20;99.90
54429;DHT22;40337;52.978;6.310;2023-04-24T11:45:11;10.10;99.90
54429;DHT22;40337;52.978;6.310;2023-04-24T11:47:38;10.20;99.90
54429;DHT22;40337;52.978;6.310;2023-04-24T11:50:06;10.20;99.90
54429;DHT22;40337;52.978;6.310;2023-04-24T11:52:36;10.30;99.90
54429;DHT22;40337;52.978;6.310;2023-04-24T11:55:02;10.30;99.90
54429;DHT22;40337;52.978;6.310;2023-04-24T11:57:30;10.40;99.90
54429;DHT22;40337;52.978;6.310;2023-04-24T12:00:03;10.60;99.90
54429;DHT22;40337;52.978;6.310;2023-04-24T12:02:30;10.70;99.90
54429;DHT22;40337;52.978;6.310;2023-04-24T12:04:56;10.70;99.90
54429;DHT22;40337;52.978;6.310;2023-04-24T12:07:23;10.60;99.90
54429;DHT22;40337;52.978;6.310;2023-04-24T12:09:59;10.60;99.90
54429;DHT22;40337;52.978;6.310;2023-04-24T12:12:27;10.60;99.90
54429;DHT22;40337;52.978;6.310;2023-04-24T12:14:55;10.50;99.90
54429;DHT22;40337;52.978;6.310;2023-04-24T12:17:26;10.50;99.90
54429;DHT22;40337;52.978;6.310;2023-04-24T12:19:52;10.40;99.90
54429;DHT22;40337;52.978;6.310;2023-04-24T12:22:18;10.40;99.90
54429;DHT22;40337;52.978;6.310;2023-04-24T12:25:00;10.40;99.90
54429;DHT22;40337;52.978;6.310;2023-04-24T12:27:29;10.40;99.90
54429;DHT22;40337;52.978;6.310;2023-04-24T12:29:59;10.50;99.90
54429;DHT22;40337;52.978;6.310;2023-04-24T12:32:25;10.60;99.90
54429;DHT22;40337;52.978;6.310;2023-04-24T12:34:51;10.70;99.90
54429;DHT22;40337;52.978;6.310;2023-04-24T12:37:17;10.80;99.90
54429;DHT22;40337;52.978;6.310;2023-04-24T12:40:06;10.80;99.90
54429;DHT22;40337;52.978;6.310;2023-04-24T12:42:32;10.70;99.90
54429;DHT22;40337;52.978;6.310;2023-04-24T12:45:01;10.70;99.90
54429;DHT22;40337;52.978;6.310;2023-04-24T12:47:29;10.60;99.90
54429;DHT22;40337;52.978;6.310;2023-04-24T12:49:55;10.50;99.90
54429;DHT22;40337;52.978;6.310;2023-04-24T12:52:24;10.40;99.90
54429;DHT22;40337;52.978;6.310;2023-04-24T12:54:53;10.40;99.90
54429;DHT22;40337;52.978;6.310;2023-04-24T12:57:18;10.40;99.90
54429;DHT22;40337;52.978;6.310;2023-04-24T12:59:44;10.40;99.90
54429;DHT22;40337;52.978;6.310;2023-04-24T13:02:11;10.40;99.90
54429;DHT22;40337;52.978;6.310;2023-04-24T13:04:36;10.40;99.90
54429;DHT22;40337;52.978;6.310;2023-04-24T13:07:02;10.40;99.90
54429;DHT22;40337;52.978;6.310;2023-04-24T13:09:28;10.40;99.90
54429;DHT22;40337;52.978;6.310;2023-04-24T13:11:54;10.40;99.90
54429;DHT22;40337;52.978;6.310;2023-04-24T13:14:19;10.30;99.90
54429;DHT22;40337;52.978;6.310;2023-04-24T13:16:45;10.20;99.90
54429;DHT22;40337;52.978;6.310;2023-04-24T13:19:11;10.20;99.90
54429;DHT22;40337;52.978;6.310;2023-04-24T13:21:36;10.20;99.90
54429;DHT22;40337;52.978;6.310;2023-04-24T13:24:02;10.20;99.90
54429;DHT22;40337;52.978;6.310;2023-04-24T13:26:30;10.30;99.90
54429;DHT22;40337;52.978;6.310;2023-04-24T13:28:55;10.40;99.90
54429;DHT22;40337;52.978;6.310;2023-04-24T13:31:21;10.50;99.90
54429;DHT22;40337;52.978;6.310;2023-04-24T13:33:47;10.50;99.90
54429;DHT22;40337;52.978;6.310;2023-04-24T13:36:13;10.40;99.90
54429;DHT22;40337;52.978;6.310;2023-04-24T13:38:38;10.50;99.90
54429;DHT22;40337;52.978;6.310;2023-04-24T13:41:04;10.50;99.90
54429;DHT22;40337;52.978;6.310;2023-04-24T13:43:29;10.60;99.90
54429;DHT22;40337;52.978;6.310;2023-04-24T13:45:55;10.70;99.90
54429;DHT22;40337;52.978;6.310;2023-04-24T13:48:20;10.70;99.90
54429;DHT22;40337;52.978;6.310;2023-04-24T13:50:46;10.70;99.90
54429;DHT22;40337;52.978;6.310;2023-04-24T13:53:13;10.80;99.90
54429;DHT22;40337;52.978;6.310;2023-04-24T13:55:39;10.70;99.90
54429;DHT22;40337;52.978;6.310;2023-04-24T13:58:05;10.60;99.90
54429;DHT22;40337;52.978;6.310;2023-04-24T14:00:31;10.50;99.90
54429;DHT22;40337;52.978;6.310;2023-04-24T14:02:57;10.50;99.90
54429;DHT22;40337;52.978;6.310;2023-04-24T14:05:23;10.30;99.90
54429;DHT22;40337;52.978;6.310;2023-04-24T14:07:48;10.20;99.90
54429;DHT22;40337;52.978;6.310;2023-04-24T14:10:14;10.20;99.90
54429;DHT22;40337;52.978;6.310;2023-04-24T14:12:39;10.10;99.90
54429;DHT22;40337;52.978;6.310;2023-04-24T14:15:05;10.20;99.90
54429;DHT22;40337;52.978;6.310;2023-04-24T14:17:31;10.10;99.90
54429;DHT22;40337;52.978;6.310;2023-04-24T14:19:57;10.10;99.90
54429;DHT22;40337;52.978;6.310;2023-04-24T14:22:25;10.10;99.90
54429;DHT22;40337;52.978;6.310;2023-04-24T14:24:50;10.00;99.90
54429;DHT22;40337;52.978;6.310;2023-04-24T14:27:16;9.90;99.90
54429;DHT22;40337;52.978;6.310;2023-04-24T14:29:42;9.90;99.90
54429;DHT22;40337;52.978;6.310;2023-04-24T14:32:07;9.90;99.90
54429;DHT22;40337;52.978;6.310;2023-04-24T14:34:34;9.80;99.90
54429;DHT22;40337;52.978;6.310;2023-04-24T14:37:00;9.80;99.90
54429;DHT22;40337;52.978;6.310;2023-04-24T14:39:25;9.90;99.90
54429;DHT22;40337;52.978;6.310;2023-04-24T14:41:51;10.00;99.90
54429;DHT22;40337;52.978;6.310;2023-04-24T14:44:16;10.00;99.90
54429;DHT22;40337;52.978;6.310;2023-04-24T14:46:42;10.00;99.90
54429;DHT22;40337;52.978;6.310;2023-04-24T14:49:08;10.00;99.90
54429;DHT22;40337;52.978;6.310;2023-04-24T14:51:38;10.00;99.90
54429;DHT22;40337;52.978;6.310;2023-04-24T14:54:03;10.00;99.90
54429;DHT22;40337;52.978;6.310;2023-04-24T14:56:29;10.00;99.90
54429;DHT22;40337;52.978;6.310;2023-04-24T14:58:55;10.10;99.90
54429;DHT22;40337;52.978;6.310;2023-04-24T15:01:21;10.10;99.90
54429;DHT22;40337;52.978;6.310;2023-04-24T15:03:46;10.00;99.90
54429;DHT22;40337;52.978;6.310;2023-04-24T15:06:12;9.90;99.90
54429;DHT22;40337;52.978;6.310;2023-04-24T15:08:38;9.80;99.90
54429;DHT22;40337;52.978;6.310;2023-04-24T15:11:03;9.70;99.90
54429;DHT22;40337;52.978;6.310;2023-04-24T15:13:29;9.70;99.90
54429;DHT22;40337;52.978;6.310;2023-04-24T15:15:55;9.70;99.90
54429;DHT22;40337;52.978;6.310;2023-04-24T15:18:20;9.80;99.90
54429;DHT22;40337;52.978;6.310;2023-04-24T15:20:46;9.80;99.90
54429;DHT22;40337;52.978;6.310;2023-04-24T15:23:11;9.90;99.90
54429;DHT22;40337;52.978;6.310;2023-04-24T15:25:37;10.00;99.90
54429;DHT22;40337;52.978;6.310;2023-04-24T15:28:04;10.00;99.90
54429;DHT22;40337;52.978;6.310;2023-04-24T15:30:31;9.90;99.90
54429;DHT22;40337;52.978;6.310;2023-04-24T15:32:57;9.80;99.90
54429;DHT22;40337;52.978;6.310;2023-04-24T15:35:22;9.70;99.90